Time;durP1;ratioP1;P1;durP2;ratioP2;P2;SDS_P1;SDS_P2;PMS_P1;PMS_P2;Temp;Humidity;BMP_temperature;BMP_pressure;BME280_temperature;BME280_humidity;BME280_pressure;Samples;Min_cycle;Max_cycle;Signal;HPM_P1;HPM_P2
2023/12/07 00:00:17;;;;;;;16.63;10.97;;;3.00;99.90;;;;;;5071740;28;20218;-71
2023/12/07 00:02:43;;;;;;;16.97;10.17;;;2.90;99.90;;;;;;5071986;28;20201;-70
2023/12/07 00:05:08;;;;;;;17.73;10.33;;;2.90;99.90;;;;;;5072257;28;20166;-70
2023/12/07 00:07:34;;;;;;;16.93;11.43;;;2.90;99.90;;;;;;5075474;28;20166;-71
2023/12/07 00:09:59;;;;;;;14.20;10.40;;;3.00;99.90;;;;;;5075569;28;20194;-71
2023/12/07 00:12:25;;;;;;;17.37;10.30;;;3.00;99.90;;;;;;5075412;28;20668;-71
2023/12/07 00:14:50;;;;;;;19.67;11.57;;;3.00;99.90;;;;;;5075602;28;20166;-70
2023/12/07 00:17:16;;;;;;;25.33;11.47;;;2.90;99.90;;;;;;5075332;28;20167;-71
2023/12/07 00:19:41;;;;;;;25.00;12.23;;;2.90;99.90;;;;;;5075167;28;20175;-71
2023/12/07 00:22:07;;;;;;;17.50;9.97;;;2.90;99.90;;;;;;5074888;28;20250;-71
2023/12/07 00:24:33;;;;;;;21.03;13.20;;;2.90;99.90;;;;;;5075431;28;20166;-70
2023/12/07 00:26:58;;;;;;;19.50;11.07;;;2.80;99.90;;;;;;5075155;28;20249;-71
2023/12/07 00:29:24;;;;;;;19.60;11.87;;;2.80;99.90;;;;;;5075004;28;20638;-71
2023/12/07 00:31:49;;;;;;;18.80;11.30;;;2.80;99.90;;;;;;5074998;28;20194;-70
2023/12/07 00:34:18;;;;;;;20.67;13.33;;;2.80;99.90;;;;;;5075348;28;20178;-72
2023/12/07 00:36:44;;;;;;;17.07;11.27;;;2.70;99.90;;;;;;5075295;28;20532;-71
2023/12/07 00:39:09;;;;;;;16.07;10.63;;;2.70;99.90;;;;;;5074607;28;20420;-71
2023/12/07 00:41:35;;;;;;;27.40;13.90;;;2.70;99.90;;;;;;5074555;28;20198;-72
2023/12/07 00:44:00;;;;;;;22.50;11.73;;;2.60;99.90;;;;;;5074796;28;20245;-71
2023/12/07 00:46:26;;;;;;;21.47;12.40;;;2.60;99.90;;;;;;5074822;28;20245;-70
2023/12/07 00:48:51;;;;;;;19.87;12.57;;;2.60;99.90;;;;;;5074756;28;20174;-71
2023/12/07 00:51:17;;;;;;;17.17;11.90;;;2.60;99.90;;;;;;5074774;28;20699;-72
2023/12/07 00:53:42;;;;;;;15.93;11.13;;;2.70;99.90;;;;;;5075077;28;20181;-71
2023/12/07 00:56:08;;;;;;;21.17;12.83;;;2.60;99.90;;;;;;5074746;28;20205;-71
2023/12/07 00:58:33;;;;;;;19.07;11.70;;;2.60;99.90;;;;;;5074548;28;20171;-71
2023/12/07 01:00:59;;;;;;;21.67;12.60;;;2.60;99.90;;;;;;5074334;28;20205;-71
2023/12/07 01:03:25;;;;;;;19.40;11.77;;;2.60;99.90;;;;;;5074199;28;20167;-71
2023/12/07 01:05:50;;;;;;;22.47;12.97;;;2.60;99.90;;;;;;5074486;28;20813;-71
2023/12/07 01:08:16;;;;;;;21.43;13.57;;;2.60;99.90;;;;;;5074289;28;20574;-71
2023/12/07 01:10:41;;;;;;;21.40;12.53;;;2.50;99.90;;;;;;5073766;28;20231;-71
2023/12/07 01:13:07;;;;;;;21.77;12.03;;;2.50;99.90;;;;;;5074374;28;20162;-71
2023/12/07 01:15:32;;;;;;;16.30;10.60;;;2.50;99.90;;;;;;5074457;28;20683;-71
2023/12/07 01:17:58;;;;;;;13.97;9.60;;;2.50;99.90;;;;;;5073854;28;20174;-71
2023/12/07 01:20:23;;;;;;;18.47;12.80;;;2.40;99.90;;;;;;5074315;28;20274;-71
2023/12/07 01:22:49;;;;;;;19.60;12.00;;;2.30;99.90;;;;;;5073880;28;20166;-71
2023/12/07 01:25:19;;;;;;;19.57;12.53;;;2.30;99.90;;;;;;5074092;28;20174;-71
2023/12/07 01:27:45;;;;;;;27.83;13.63;;;2.30;99.90;;;;;;5074041;28;20166;-72
2023/12/07 01:30:11;;;;;;;22.03;13.70;;;2.20;99.90;;;;;;5072575;28;20512;-72
2023/12/07 01:32:36;;;;;;;18.83;13.00;;;2.20;99.90;;;;;;5073916;28;20190;-71
2023/12/07 01:35:02;;;;;;;17.37;11.80;;;2.10;99.90;;;;;;5072746;28;20170;-72
2023/12/07 01:37:29;;;;;;;18.10;11.80;;;2.10;99.90;;;;;;5073730;28;20168;-72
2023/12/07 01:39:55;;;;;;;27.73;14.17;;;2.10;99.90;;;;;;5073671;28;20162;-71
2023/12/07 01:42:20;;;;;;;20.10;12.00;;;2.10;99.90;;;;;;5073754;28;20424;-70
2023/12/07 01:44:46;;;;;;;22.20;13.00;;;2.00;99.90;;;;;;5073460;28;20201;-72
2023/12/07 01:47:11;;;;;;;22.50;13.40;;;2.00;99.90;;;;;;5073643;28;20621;-71
2023/12/07 01:49:38;;;;;;;18.20;12.30;;;2.00;99.90;;;;;;5073496;28;20166;-71
2023/12/07 01:52:05;;;;;;;24.50;11.27;;;2.00;99.90;;;;;;5073409;28;20324;-71
2023/12/07 01:54:31;;;;;;;17.53;11.10;;;2.00;99.90;;;;;;5073256;28;20947;-70
2023/12/07 01:56:56;;;;;;;15.87;11.50;;;2.00;99.90;;;;;;5073558;28;20408;-70
2023/12/07 01:59:23;;;;;;;15.03;10.60;;;2.00;99.90;;;;;;5073224;28;20404;-71
2023/12/07 02:01:48;;;;;;;18.37;10.00;;;2.00;99.90;;;;;;5072944;28;20210;-71
2023/12/07 02:04:14;;;;;;;18.77;10.60;;;2.00;99.90;;;;;;5073570;28;20411;-71
2023/12/07 02:06:40;;;;;;;20.03;11.40;;;1.90;99.90;;;;;;5073408;28;20162;-71
2023/12/07 02:09:05;;;;;;;16.90;10.27;;;1.90;99.90;;;;;;5073236;28;20280;-71
2023/12/07 02:11:31;;;;;;;19.40;12.07;;;1.90;99.90;;;;;;5073349;28;20190;-71
2023/12/07 02:13:57;;;;;;;16.33;10.77;;;1.90;99.90;;;;;;5073190;28;20420;-70
2023/12/07 02:16:37;;;;;;;15.83;10.50;;;1.80;99.90;;;;;;5073044;28;20196;-70
2023/12/07 02:19:11;;;;;;;20.40;12.23;;;1.90;99.90;;;;;;5073075;28;20553;-70
2023/12/07 02:21:47;;;;;;;27.90;12.90;;;1.90;99.90;;;;;;5072767;28;20458;-71
2023/12/07 02:24:19;;;;;;;18.10;11.10;;;2.00;99.90;;;;;;5071838;28;20412;-71
2023/12/07 02:26:45;;;;;;;18.70;13.27;;;2.00;99.90;;;;;;5073086;28;20405;-71
2023/12/07 02:29:10;;;;;;;24.60;14.03;;;2.00;99.90;;;;;;5072122;28;20423;-72
2023/12/07 02:31:36;;;;;;;26.83;14.93;;;2.10;99.90;;;;;;5072728;28;20198;-72
2023/12/07 02:34:01;;;;;;;24.63;12.97;;;2.10;99.90;;;;;;5073019;28;20590;-71
2023/12/07 02:36:28;;;;;;;20.50;11.80;;;2.20;99.90;;;;;;5072833;28;20199;-71
2023/12/07 02:38:58;;;;;;;20.33;11.43;;;2.30;99.90;;;;;;5072382;28;20177;-72
2023/12/07 02:41:25;;;;;;;20.40;12.40;;;2.20;99.90;;;;;;5072413;28;20551;-72
2023/12/07 02:43:51;;;;;;;17.30;10.23;;;2.20;99.90;;;;;;5071479;28;20426;-72
2023/12/07 02:46:18;;;;;;;21.87;12.83;;;2.20;99.90;;;;;;5072990;28;20454;-71
2023/12/07 02:48:43;;;;;;;19.77;12.30;;;2.20;99.90;;;;;;5072365;28;20957;-71
2023/12/07 02:51:09;;;;;;;15.07;9.83;;;2.20;99.90;;;;;;5071130;28;20436;-71
2023/12/07 02:53:34;;;;;;;19.70;10.97;;;2.10;99.90;;;;;;5072260;28;20194;-71
2023/12/07 02:56:00;;;;;;;26.47;13.97;;;2.10;99.90;;;;;;5072482;28;20174;-71
2023/12/07 02:58:25;;;;;;;20.80;13.10;;;2.10;99.90;;;;;;5072545;28;20579;-71
2023/12/07 03:00:51;;;;;;;20.30;13.07;;;2.00;99.90;;;;;;5072153;28;20228;-71
2023/12/07 03:03:16;;;;;;;18.50;11.77;;;2.00;99.90;;;;;;5072662;28;20159;-71
2023/12/07 03:05:42;;;;;;;19.33;10.80;;;2.00;99.90;;;;;;5072484;28;20216;-71
2023/12/07 03:08:07;;;;;;;23.60;13.23;;;1.90;99.90;;;;;;5072385;28;20158;-71
2023/12/07 03:10:33;;;;;;;22.27;12.53;;;1.80;99.90;;;;;;5072612;28;20200;-72
2023/12/07 03:12:59;;;;;;;18.47;11.93;;;1.70;99.90;;;;;;5072418;28;20567;-71
2023/12/07 03:15:24;;;;;;;23.47;14.00;;;1.70;99.90;;;;;;5072308;28;20249;-71
2023/12/07 03:17:50;;;;;;;26.87;14.10;;;1.60;99.90;;;;;;5072098;28;20591;-71
2023/12/07 03:20:16;;;;;;;17.47;12.27;;;1.60;99.90;;;;;;5072470;28;20574;-70
2023/12/07 03:22:42;;;;;;;26.13;12.70;;;1.60;99.90;;;;;;5072129;28;20423;-71
2023/12/07 03:25:08;;;;;;;20.57;11.77;;;1.50;99.90;;;;;;5072322;28;20429;-71
2023/12/07 03:27:33;;;;;;;24.17;11.57;;;1.50;99.90;;;;;;5072051;28;20608;-72
2023/12/07 03:29:59;;;;;;;21.00;11.63;;;1.50;99.90;;;;;;5072061;28;20621;-71
2023/12/07 03:32:24;;;;;;;19.30;11.33;;;1.40;99.90;;;;;;5072318;28;20166;-71
2023/12/07 03:34:50;;;;;;;25.50;11.20;;;1.30;99.90;;;;;;5072441;28;20637;-72
2023/12/07 03:37:15;;;;;;;17.97;11.53;;;1.30;99.90;;;;;;5072170;28;20589;-72
2023/12/07 03:39:41;;;;;;;15.70;11.03;;;1.30;99.90;;;;;;5073100;28;20198;-71
2023/12/07 03:42:06;;;;;;;23.73;13.10;;;1.30;99.90;;;;;;5076199;28;20194;-71
2023/12/07 03:44:32;;;;;;;20.50;12.10;;;1.30;99.90;;;;;;5076151;28;20166;-71
2023/12/07 03:46:57;;;;;;;23.23;11.37;;;1.20;99.90;;;;;;5076063;28;20158;-71
2023/12/07 03:49:23;;;;;;;25.07;13.90;;;1.20;99.90;;;;;;5074731;28;20260;-72
2023/12/07 03:51:48;;;;;;;20.90;11.67;;;1.20;99.90;;;;;;5075866;28;20186;-73
2023/12/07 03:54:14;;;;;;;23.33;11.10;;;1.10;99.90;;;;;;5075798;28;20193;-72
2023/12/07 03:56:42;;;;;;;16.53;10.57;;;1.10;99.90;;;;;;5076154;28;20174;-72
2023/12/07 03:59:08;;;;;;;16.20;11.83;;;1.10;99.90;;;;;;5075663;28;20170;-72
2023/12/07 04:01:33;;;;;;;18.03;11.60;;;1.10;99.90;;;;;;5075660;28;20460;-71
2023/12/07 04:04:00;;;;;;;24.77;12.40;;;1.10;99.90;;;;;;5074311;28;20170;-71
2023/12/07 04:06:26;;;;;;;14.57;10.10;;;1.00;99.90;;;;;;5075699;28;20184;-72
2023/12/07 04:08:52;;;;;;;21.53;11.57;;;1.00;99.90;;;;;;5074188;28;20506;-71
2023/12/07 04:11:18;;;;;;;18.17;11.23;;;1.00;99.90;;;;;;5075615;28;20217;-71
2023/12/07 04:13:44;;;;;;;18.67;10.93;;;0.90;99.90;;;;;;5074493;28;20455;-71
2023/12/07 04:16:10;;;;;;;18.27;11.10;;;0.90;99.90;;;;;;5075745;28;20170;-72
2023/12/07 04:18:36;;;;;;;19.07;11.63;;;0.90;99.90;;;;;;5075525;28;20802;-71
2023/12/07 04:21:02;;;;;;;24.47;12.97;;;0.90;99.90;;;;;;5075170;28;20525;-71
2023/12/07 04:23:28;;;;;;;20.60;12.03;;;0.90;99.90;;;;;;5075456;28;20488;-71
2023/12/07 04:25:54;;;;;;;18.67;10.70;;;0.90;99.90;;;;;;5075445;28;20432;-71
2023/12/07 04:28:19;;;;;;;20.67;11.60;;;0.80;99.90;;;;;;5075166;28;20647;-70
2023/12/07 04:30:45;;;;;;;19.40;11.70;;;0.80;99.90;;;;;;5075270;28;20194;-70
2023/12/07 04:33:11;;;;;;;21.83;13.27;;;0.80;99.90;;;;;;5074113;28;20178;-71
2023/12/07 04:35:36;;;;;;;20.57;13.93;;;0.70;99.90;;;;;;5074232;28;20323;-71
2023/12/07 04:38:02;;;;;;;17.33;10.87;;;0.70;99.90;;;;;;5075184;28;20178;-71
2023/12/07 04:40:27;;;;;;;20.63;12.70;;;0.80;99.90;;;;;;5075122;28;20206;-71
2023/12/07 04:42:53;;;;;;;21.43;10.67;;;0.70;99.90;;;;;;5075137;28;20223;-71
2023/12/07 04:45:18;;;;;;;29.80;12.10;;;0.80;99.90;;;;;;5075078;28;20231;-71
2023/12/07 04:47:45;;;;;;;21.23;12.17;;;0.70;99.90;;;;;;5075103;28;20170;-71
2023/12/07 04:50:10;;;;;;;23.93;13.33;;;0.70;99.90;;;;;;5075367;28;20217;-71
2023/12/07 04:52:36;;;;;;;24.53;12.83;;;0.70;99.90;;;;;;5074123;28;20404;-70
2023/12/07 04:55:02;;;;;;;19.90;11.70;;;0.70;99.90;;;;;;5074902;28;20186;-70
2023/12/07 04:57:28;;;;;;;20.27;11.60;;;0.70;99.90;;;;;;5075288;28;20189;-70
2023/12/07 04:59:53;;;;;;;22.93;12.77;;;0.60;99.90;;;;;;5074895;28;20413;-71
2023/12/07 05:02:19;;;;;;;24.87;12.03;;;0.60;99.90;;;;;;5074857;28;20227;-71
2023/12/07 05:04:45;;;;;;;21.80;12.67;;;0.60;99.90;;;;;;5075026;28;20215;-71
2023/12/07 05:07:12;;;;;;;23.17;13.27;;;0.60;99.90;;;;;;5073593;28;20278;-70
2023/12/07 05:09:38;;;;;;;21.33;13.40;;;0.60;99.90;;;;;;5074656;28;20910;-71
2023/12/07 05:12:04;;;;;;;20.60;13.60;;;0.70;99.90;;;;;;5074506;28;20433;-70
2023/12/07 05:14:31;;;;;;;24.13;13.10;;;0.80;99.90;;;;;;5074630;28;20249;-71
2023/12/07 05:16:57;;;;;;;22.17;13.20;;;0.90;99.90;;;;;;5074586;28;20400;-70
2023/12/07 05:19:25;;;;;;;19.60;12.07;;;0.90;99.90;;;;;;5072874;28;20424;-70
2023/12/07 05:21:51;;;;;;;20.40;11.50;;;1.00;99.90;;;;;;5072881;28;20569;-71
2023/12/07 05:24:17;;;;;;;18.30;10.60;;;1.00;99.90;;;;;;5074559;28;20410;-71
2023/12/07 05:26:45;;;;;;;19.20;10.43;;;1.00;99.90;;;;;;5073229;28;20632;-70
2023/12/07 05:29:11;;;;;;;21.90;10.67;;;1.10;99.90;;;;;;5073950;28;20428;-71
2023/12/07 05:31:37;;;;;;;18.87;11.70;;;1.10;99.90;;;;;;5072674;28;20436;-70
2023/12/07 05:34:03;;;;;;;17.97;11.53;;;1.10;99.90;;;;;;5074077;28;20408;-70
2023/12/07 05:36:29;;;;;;;26.13;13.13;;;1.10;99.90;;;;;;5074019;28;20181;-70
2023/12/07 05:38:54;;;;;;;22.97;10.83;;;1.10;99.90;;;;;;5072701;28;20792;-70
2023/12/07 05:41:20;;;;;;;21.23;12.07;;;1.10;99.90;;;;;;5073675;28;20226;-71
2023/12/07 05:43:45;;;;;;;15.57;10.10;;;1.10;99.90;;;;;;5073888;28;20253;-71
2023/12/07 05:46:11;;;;;;;15.90;10.83;;;0.90;99.90;;;;;;5074203;28;20230;-71
2023/12/07 05:48:37;;;;;;;24.00;13.37;;;1.00;99.90;;;;;;5072292;28;20649;-71
2023/12/07 05:51:03;;;;;;;15.50;10.23;;;1.00;99.90;;;;;;5072578;28;20707;-71
2023/12/07 05:53:29;;;;;;;17.13;12.23;;;1.00;99.90;;;;;;5073629;28;20416;-70
2023/12/07 05:55:55;;;;;;;14.77;10.10;;;1.00;99.90;;;;;;5073753;28;20167;-72
2023/12/07 05:58:20;;;;;;;15.80;9.60;;;1.00;99.90;;;;;;5073690;28;20169;-71
2023/12/07 06:00:46;;;;;;;17.50;8.40;;;0.90;99.90;;;;;;5073548;28;20518;-71
2023/12/07 06:03:13;;;;;;;16.13;8.43;;;0.90;99.90;;;;;;5073282;28;20163;-71
2023/12/07 06:05:38;;;;;;;16.93;10.20;;;0.90;99.90;;;;;;5073553;28;20404;-71
2023/12/07 06:08:05;;;;;;;27.43;11.33;;;0.90;99.90;;;;;;5073181;28;20891;-71
2023/12/07 06:10:30;;;;;;;18.63;9.93;;;0.90;99.90;;;;;;5072285;28;20200;-71
2023/12/07 06:12:58;;;;;;;19.13;11.47;;;0.90;99.90;;;;;;5072081;28;20420;-71
2023/12/07 06:15:24;;;;;;;17.60;10.53;;;0.80;99.90;;;;;;5073173;28;20162;-71
2023/12/07 06:17:49;;;;;;;19.03;10.33;;;0.80;99.90;;;;;;5073236;28;20504;-71
2023/12/07 06:20:15;;;;;;;21.13;9.77;;;0.80;99.90;;;;;;5072827;28;20193;-70
2023/12/07 06:22:41;;;;;;;13.80;7.87;;;0.80;99.90;;;;;;5072870;28;20170;-71
2023/12/07 06:25:08;;;;;;;16.73;10.83;;;0.80;99.90;;;;;;5073245;28;20448;-70
2023/12/07 06:27:34;;;;;;;16.40;10.67;;;0.80;99.90;;;;;;5071705;28;20694;-71
2023/12/07 06:30:00;;;;;;;16.33;9.73;;;0.80;99.90;;;;;;5072950;28;20432;-72
2023/12/07 06:32:26;;;;;;;23.60;11.20;;;0.80;99.90;;;;;;5071614;28;20428;-71
2023/12/07 06:34:51;;;;;;;13.50;8.40;;;0.70;99.90;;;;;;5072990;28;20253;-70
2023/12/07 06:37:17;;;;;;;18.13;9.90;;;0.70;99.90;;;;;;5071507;28;20464;-71
2023/12/07 06:39:43;;;;;;;14.27;8.70;;;0.70;99.90;;;;;;5072633;28;20252;-71
2023/12/07 06:42:08;;;;;;;15.03;8.20;;;0.60;99.90;;;;;;5071438;28;21026;-71
2023/12/07 06:44:34;;;;;;;14.20;7.90;;;0.60;99.90;;;;;;5072523;28;20186;-70
2023/12/07 06:47:03;;;;;;;18.83;9.93;;;0.60;99.90;;;;;;5072656;28;20167;-71
2023/12/07 06:49:28;;;;;;;22.83;10.10;;;0.60;99.90;;;;;;5072358;28;20432;-71
2023/12/07 06:51:54;;;;;;;16.33;9.60;;;0.70;99.90;;;;;;5072505;28;20452;-70
2023/12/07 06:54:19;;;;;;;12.23;8.60;;;0.70;99.90;;;;;;5072696;28;20555;-71
2023/12/07 06:56:46;;;;;;;15.80;9.53;;;0.70;99.90;;;;;;5072787;28;20174;-71
2023/12/07 06:59:11;;;;;;;16.90;9.30;;;0.80;99.90;;;;;;5072619;28;20838;-71
2023/12/07 07:01:38;;;;;;;15.93;10.77;;;0.80;99.90;;;;;;5072294;28;20510;-71
2023/12/07 07:04:03;;;;;;;19.10;8.40;;;0.80;99.90;;;;;;5072718;28;20185;-71
2023/12/07 07:06:29;;;;;;;13.37;9.00;;;0.90;99.90;;;;;;5072680;28;20443;-71
2023/12/07 07:08:54;;;;;;;16.93;10.80;;;0.90;99.90;;;;;;5072404;28;20162;-71
2023/12/07 07:11:20;;;;;;;13.83;9.27;;;0.90;99.90;;;;;;5072392;28;20193;-70
2023/12/07 07:13:45;;;;;;;20.40;10.23;;;0.90;99.90;;;;;;5072648;28;20215;-71
2023/12/07 07:16:11;;;;;;;13.57;7.43;;;0.80;99.90;;;;;;5073586;28;20245;-71
2023/12/07 07:18:39;;;;;;;13.80;9.83;;;0.90;99.90;;;;;;5073124;28;20170;-70
2023/12/07 07:21:06;;;;;;;19.87;9.97;;;0.90;99.90;;;;;;5072353;28;20198;-70
2023/12/07 07:23:31;;;;;;;16.40;8.40;;;0.90;99.90;;;;;;5072280;28;20393;-71
2023/12/07 07:25:57;;;;;;;20.30;8.67;;;0.90;99.90;;;;;;5072412;28;20404;-70
2023/12/07 07:28:22;;;;;;;15.87;9.47;;;0.90;99.90;;;;;;5072037;28;20166;-70
2023/12/07 07:30:48;;;;;;;12.57;8.00;;;0.80;99.90;;;;;;5072286;28;20190;-70
2023/12/07 07:33:13;;;;;;;15.80;9.43;;;0.80;99.90;;;;;;5072123;28;20170;-70
2023/12/07 07:35:39;;;;;;;21.87;8.60;;;0.80;99.90;;;;;;5072285;28;20249;-69
2023/12/07 07:38:04;;;;;;;15.20;9.57;;;0.80;99.90;;;;;;5071973;28;20170;-70
2023/12/07 07:40:30;;;;;;;23.60;10.50;;;0.90;99.90;;;;;;5072039;28;20209;-71
2023/12/07 07:42:55;;;;;;;23.23;9.50;;;0.90;99.90;;;;;;5071907;28;20163;-71
2023/12/07 07:45:21;;;;;;;22.10;10.03;;;1.00;99.90;;;;;;5072047;28;20163;-71
2023/12/07 07:47:46;;;;;;;18.27;9.77;;;1.00;99.90;;;;;;5071941;28;20166;-70
2023/12/07 07:50:12;;;;;;;22.63;10.17;;;1.00;99.90;;;;;;5072081;28;20202;-71
2023/12/07 07:52:38;;;;;;;19.37;10.00;;;1.00;99.90;;;;;;5071904;28;20540;-71
2023/12/07 07:55:04;;;;;;;19.73;9.90;;;1.10;99.90;;;;;;5072178;28;20231;-71
2023/12/07 07:57:30;;;;;;;17.50;10.10;;;1.10;99.90;;;;;;5071775;28;20162;-72
2023/12/07 07:59:57;;;;;;;16.83;9.77;;;1.20;99.90;;;;;;5071741;28;20461;-71
2023/12/07 08:02:22;;;;;;;18.47;11.27;;;1.30;99.90;;;;;;5071816;28;20456;-71
2023/12/07 08:04:48;;;;;;;23.97;10.17;;;1.40;99.90;;;;;;5071830;28;20401;-71
2023/12/07 08:07:14;;;;;;;20.20;10.53;;;1.70;99.90;;;;;;5071819;28;20185;-72
2023/12/07 08:09:39;;;;;;;21.00;11.07;;;2.60;99.90;;;;;;5070977;28;20170;-72
2023/12/07 08:12:06;;;;;;;22.83;12.47;;;3.50;99.90;;;;;;5071891;28;20243;-72
2023/12/07 08:14:32;;;;;;;19.63;12.33;;;4.30;99.90;;;;;;5071988;28;20600;-72
2023/12/07 08:16:57;;;;;;;21.90;12.47;;;5.10;99.90;;;;;;5071726;28;20412;-72
2023/12/07 08:19:23;;;;;;;20.10;12.03;;;5.80;99.90;;;;;;5070259;28;20181;-72
2023/12/07 08:21:50;;;;;;;22.87;12.70;;;6.50;99.90;;;;;;5071724;28;20198;-72
2023/12/07 08:24:16;;;;;;;17.63;12.60;;;7.40;99.90;;;;;;5071927;28;20162;-72
2023/12/07 08:26:41;;;;;;;19.30;11.70;;;8.00;99.90;;;;;;5072927;28;20399;-72
2023/12/07 08:29:07;;;;;;;16.87;11.97;;;8.60;99.90;;;;;;5075244;28;20621;-71
2023/12/07 08:31:32;;;;;;;15.60;11.20;;;9.30;99.90;;;;;;5075272;28;20741;-72
2023/12/07 08:33:58;;;;;;;18.43;11.43;;;9.80;99.90;;;;;;5075241;28;20549;-73
2023/12/07 08:36:23;;;;;;;15.27;10.03;;;10.60;99.90;;;;;;5075192;28;20251;-73
2023/12/07 08:38:49;;;;;;;12.60;9.30;;;11.00;99.90;;;;;;5073906;28;20254;-72
2023/12/07 08:41:14;;;;;;;10.90;8.67;;;10.70;99.90;;;;;;5074834;28;20198;-72
2023/12/07 08:43:40;;;;;;;11.23;8.20;;;10.60;99.90;;;;;;5074896;28;20170;-72
2023/12/07 08:46:07;;;;;;;9.30;7.50;;;10.40;99.90;;;;;;5075170;28;20170;-71
2023/12/07 08:48:33;;;;;;;11.90;7.53;;;10.80;99.90;;;;;;5074672;28;20637;-72
2023/12/07 08:50:59;;;;;;;8.90;7.67;;;11.70;99.90;;;;;;5074768;28;20428;-73
2023/12/07 08:53:26;;;;;;;9.13;7.43;;;12.50;99.90;;;;;;5074519;28;20485;-73
2023/12/07 08:55:52;;;;;;;9.60;7.00;;;12.90;99.90;;;;;;5074942;28;20170;-73
2023/12/07 08:58:18;;;;;;;8.10;6.53;;;13.00;99.90;;;;;;5073353;28;20825;-72
2023/12/07 09:00:44;;;;;;;8.93;7.50;;;13.00;96.20;;;;;;5074530;28;20463;-71
2023/12/07 09:03:09;;;;;;;13.30;7.60;;;13.60;97.00;;;;;;5074680;28;20538;-73
2023/12/07 09:05:35;;;;;;;7.90;6.77;;;13.90;78.70;;;;;;5074791;28;20253;-73
2023/12/07 09:08:01;;;;;;;10.07;7.70;;;14.00;78.10;;;;;;5074520;28;20543;-73
2023/12/07 09:10:26;;;;;;;8.90;8.00;;;13.60;72.60;;;;;;5074447;28;20261;-72
2023/12/07 09:12:52;;;;;;;10.10;8.00;;;13.40;71.10;;;;;;5074438;28;20189;-73
2023/12/07 09:15:17;;;;;;;10.07;8.00;;;13.50;69.90;;;;;;5074442;28;20239;-73
2023/12/07 09:17:43;;;;;;;9.57;8.57;;;13.90;68.50;;;;;;5074241;28;20171;-73
2023/12/07 09:20:14;;;;;;;10.67;7.53;;;14.00;65.90;;;;;;5074310;28;20243;-73
2023/12/07 09:22:42;;;;;;;9.90;8.20;;;14.30;65.50;;;;;;5074183;28;20207;-73
2023/12/07 09:25:08;;;;;;;9.80;8.43;;;14.80;62.90;;;;;;5074354;28;20397;-73
2023/12/07 09:27:35;;;;;;;10.30;7.87;;;14.90;59.60;;;;;;5073948;28;20919;-73
2023/12/07 09:30:01;;;;;;;9.63;7.63;;;15.00;57.80;;;;;;5074039;28;20186;-73
2023/12/07 09:32:28;;;;;;;8.87;7.60;;;15.40;57.90;;;;;;5074127;28;20454;-73
2023/12/07 09:34:53;;;;;;;10.33;7.77;;;15.70;56.10;;;;;;5074158;28;20162;-73
2023/12/07 09:37:19;;;;;;;10.27;9.20;;;15.80;54.10;;;;;;5074034;28;20393;-73
2023/12/07 09:39:45;;;;;;;9.77;8.77;;;15.50;52.60;;;;;;5073713;28;20167;-73
2023/12/07 09:42:11;;;;;;;10.20;8.60;;;15.10;52.60;;;;;;5072062;28;20497;-72
2023/12/07 09:44:36;;;;;;;8.23;7.23;;;14.90;53.50;;;;;;5073515;28;20167;-72
2023/12/07 09:47:02;;;;;;;10.43;7.80;;;14.80;53.40;;;;;;5074060;28;20166;-71
2023/12/07 09:49:29;;;;;;;8.83;7.83;;;14.50;53.40;;;;;;5073527;28;20166;-71
2023/12/07 09:51:56;;;;;;;10.73;8.37;;;14.00;53.30;;;;;;5073514;28;20186;-70
2023/12/07 09:54:22;;;;;;;11.47;8.10;;;13.90;54.60;;;;;;5073196;28;20424;-72
2023/12/07 09:56:47;;;;;;;8.53;7.63;;;13.60;55.90;;;;;;5073762;28;20400;-72
2023/12/07 09:59:13;;;;;;;13.23;10.03;;;13.60;57.50;;;;;;5073265;28;20401;-72
2023/12/07 10:01:39;;;;;;;9.90;7.50;;;13.80;58.10;;;;;;5073443;28;20209;-73
2023/12/07 10:04:17;;;;;;;12.43;9.13;;;14.20;59.40;;;;;;5073572;28;20223;-72
2023/12/07 10:06:45;;;;;;;11.40;8.00;;;14.70;57.50;;;;;;5073732;28;20549;-73
2023/12/07 10:09:11;;;;;;;9.77;7.30;;;15.60;56.60;;;;;;5073353;28;20393;-72
2023/12/07 10:11:37;;;;;;;9.13;8.20;;;16.60;53.90;;;;;;5073116;28;20558;-72
2023/12/07 10:14:02;;;;;;;8.80;7.80;;;17.10;51.40;;;;;;5073275;28;20585;-73
2023/12/07 10:16:28;;;;;;;8.87;7.57;;;16.90;48.60;;;;;;5073395;28;20171;-73
2023/12/07 10:18:53;;;;;;;9.47;8.57;;;16.90;48.80;;;;;;5073152;28;20166;-72
2023/12/07 10:21:34;;;;;;;9.17;7.30;;;16.50;48.10;;;;;;5072807;28;20201;-72
2023/12/07 10:24:02;;;;;;;10.03;7.90;;;16.70;48.40;;;;;;5072877;28;20170;-73
2023/12/07 10:26:28;;;;;;;9.67;7.53;;;17.30;48.40;;;;;;5072022;28;20916;-73
2023/12/07 10:28:54;;;;;;;13.40;8.87;;;17.30;46.90;;;;;;5072738;28;20408;-72
2023/12/07 10:31:19;;;;;;;8.20;7.40;;;17.40;46.60;;;;;;5072655;28;20195;-72
2023/12/07 10:33:49;;;;;;;10.23;7.93;;;17.50;46.00;;;;;;5072970;28;20408;-73
2023/12/07 10:36:15;;;;;;;8.60;7.43;;;17.30;45.70;;;;;;5071811;28;20185;-72
2023/12/07 10:38:45;;;;;;;7.30;6.60;;;17.40;45.60;;;;;;5072776;28;20404;-73
2023/12/07 10:41:12;;;;;;;8.80;7.93;;;17.50;46.00;;;;;;5072716;28;20213;-72
2023/12/07 10:43:43;;;;;;;9.20;6.77;;;17.60;45.10;;;;;;5072830;28;20879;-72
2023/12/07 10:46:09;;;;;;;9.50;6.80;;;17.80;44.90;;;;;;5072793;28;20790;-73
2023/12/07 10:48:36;;;;;;;8.13;6.60;;;17.60;44.30;;;;;;5072241;28;20546;-72
2023/12/07 10:51:08;;;;;;;7.03;6.40;;;17.30;44.00;;;;;;5071903;28;20435;-72
2023/12/07 10:53:40;;;;;;;7.13;6.33;;;16.80;44.10;;;;;;5071141;28;20428;-71
2023/12/07 10:56:10;;;;;;;6.33;5.73;;;16.60;44.70;;;;;;5072612;28;20960;-71
2023/12/07 10:58:36;;;;;;;7.90;7.20;;;15.90;45.20;;;;;;5072060;28;20433;-72
2023/12/07 11:01:02;;;;;;;11.70;6.60;;;16.20;46.60;;;;;;5071126;28;21067;-73
2023/12/07 11:03:29;;;;;;;12.33;7.07;;;16.60;46.80;;;;;;5071403;28;20451;-73
2023/12/07 11:05:55;;;;;;;9.73;6.57;;;16.90;46.60;;;;;;5072218;28;20409;-71
2023/12/07 11:08:33;;;;;;;6.97;6.20;;;17.30;46.30;;;;;;5071755;28;20403;-71
2023/12/07 11:11:29;;;;;;;8.13;6.10;;;17.50;45.50;;;;;;5071770;28;20692;-73
2023/12/07 11:14:07;;;;;;;8.17;5.43;;;17.70;45.00;;;;;;5071724;28;20424;-72
2023/12/07 11:16:36;;;;;;;7.00;5.97;;;17.90;44.20;;;;;;5071957;28;20412;-72
2023/12/07 11:19:04;;;;;;;5.83;5.23;;;17.60;43.60;;;;;;5071608;28;20411;-72
2023/12/07 11:21:30;;;;;;;12.67;6.23;;;18.00;44.30;;;;;;5071757;28;20464;-72
2023/12/07 11:23:59;;;;;;;7.67;6.47;;;18.40;43.90;;;;;;5070609;28;20404;-72
2023/12/07 11:26:25;;;;;;;7.10;5.60;;;18.80;43.30;;;;;;5072034;28;20162;-71
2023/12/07 11:28:50;;;;;;;9.53;5.80;;;18.70;42.90;;;;;;5071805;28;20408;-71
2023/12/07 11:31:16;;;;;;;6.93;5.77;;;18.50;42.20;;;;;;5071921;28;20417;-72
2023/12/07 11:33:43;;;;;;;7.00;6.30;;;18.60;42.70;;;;;;5071579;28;20170;-72
2023/12/07 11:36:10;;;;;;;7.33;6.43;;;18.60;42.40;;;;;;5070547;28;20440;-70
2023/12/07 11:38:37;;;;;;;6.53;5.57;;;18.20;42.30;;;;;;5070369;28;20436;-73
2023/12/07 11:41:02;;;;;;;9.00;7.20;;;18.40;42.60;;;;;;5071693;28;20451;-73
2023/12/07 11:43:40;;;;;;;7.50;5.70;;;18.60;42.40;;;;;;5071497;28;20408;-69
2023/12/07 11:46:07;;;;;;;7.87;6.47;;;18.90;42.40;;;;;;5071753;28;20162;-69
2023/12/07 11:48:33;;;;;;;9.20;7.10;;;18.90;41.70;;;;;;5070906;28;20440;-69
2023/12/07 11:51:07;;;;;;;8.37;5.90;;;19.20;41.90;;;;;;5071352;28;20463;-69
2023/12/07 11:53:34;;;;;;;7.00;6.07;;;19.00;41.20;;;;;;5071251;28;20269;-69
2023/12/07 11:56:02;;;;;;;7.83;6.80;;;19.10;41.10;;;;;;5071211;28;20975;-70
2023/12/07 11:58:30;;;;;;;8.07;5.80;;;19.20;41.40;;;;;;5071196;28;20417;-69
2023/12/07 12:00:56;;;;;;;6.77;6.00;;;19.40;41.30;;;;;;5072780;28;21035;-69
2023/12/07 12:03:29;;;;;;;7.37;6.67;;;19.50;41.00;;;;;;5075115;28;20496;-67
2023/12/07 12:05:55;;;;;;;8.87;6.53;;;19.30;40.50;;;;;;5073947;28;20405;-67
2023/12/07 12:08:22;;;;;;;8.47;7.00;;;18.70;40.10;;;;;;5074690;28;20404;-68
2023/12/07 12:10:50;;;;;;;6.93;6.03;;;18.40;40.30;;;;;;5074863;28;20847;-69
2023/12/07 12:13:16;;;;;;;6.80;5.53;;;18.20;41.10;;;;;;5074793;28;20911;-69
2023/12/07 12:15:41;;;;;;;8.43;6.40;;;18.00;41.40;;;;;;5074797;28;20458;-69
2023/12/07 12:18:08;;;;;;;8.43;7.07;;;17.90;41.80;;;;;;5074544;28;20415;-69
2023/12/07 12:20:34;;;;;;;9.50;7.23;;;17.40;41.90;;;;;;5074660;28;20194;-69
2023/12/07 12:23:00;;;;;;;7.73;6.30;;;16.50;42.00;;;;;;5074707;28;20408;-69
2023/12/07 12:25:30;;;;;;;7.10;6.37;;;15.90;42.90;;;;;;5074865;28;20177;-69
2023/12/07 12:28:01;;;;;;;9.40;6.33;;;15.70;43.90;;;;;;5074851;28;20963;-69
2023/12/07 12:30:28;;;;;;;9.90;6.10;;;15.80;44.50;;;;;;5074647;28;20451;-69
2023/12/07 12:32:53;;;;;;;8.40;6.80;;;15.80;44.60;;;;;;5074511;28;20440;-69
2023/12/07 12:35:19;;;;;;;9.43;6.47;;;15.90;45.00;;;;;;5074619;28;20437;-69